Latest Weather Observations for Gympie

IDQ60801

Issued at 6:05 pm EST Thursday 24 April 2014 (issued every 30 minutes, with the page automatically refreshed every 10 minutes)

About weather observations | Map of weather stations | Latest weather observations for QLD | Other Formats
Station Details ID: 040093 Name: GYMPIE Lat: -26.18 Lon: 152.64 Height: 64.5 m
Data from the previous 72 hours. | See also: Recent months at Gympie
Date/Time
EST
Temp
°C
App
Temp
°C
Dew
Point
Rel
Hum
%
Delta-T
°C
Wind Press
QNH
hPa
Press
MSL
hPa
Rain
since 9 am
mm
Dir
 
Spd
km/h
Gust
km/h
Spd
kts
Gust
kts
24/06:00pm 22.7 25.0 17.6 73 3.2 E 2 7 1 4 1015.1 1014.9 0.0
24/05:30pm 23.5 25.1 17.0 67 4.0 ENE 4 7 2 4 1014.7 - 0.0
24/05:00pm 24.5 25.3 17.2 63 4.5 E 9 15 5 8 1014.5 1014.3 0.0
24/04:30pm 25.5 26.1 16.9 59 5.3 E 9 17 5 9 1014.2 - 0.0
24/04:00pm 26.2 27.4 17.3 58 5.6 ESE 7 13 4 7 1014.3 1014.1 0.0
24/03:30pm 26.5 27.4 17.6 58 5.6 E 9 19 5 10 1013.7 - 0.0
24/03:00pm 26.7 26.6 16.0 52 6.6 ESE 11 17 6 9 1013.7 1013.5 0.0
24/02:30pm 25.3 26.4 17.2 61 5.0 SE 7 13 4 7 1013.8 - 0.0
24/02:00pm 26.4 27.4 16.3 53 6.2 SE 6 11 3 6 1013.9 1013.7 0.0
24/01:30pm 27.1 28.7 17.8 56 5.9 SE 6 13 3 7 1014.1 - 0.0
24/01:00pm 26.7 28.8 18.0 59 5.5 ESE 4 11 2 6 1014.4 1014.2 0.0
24/12:30pm 26.2 28.0 18.3 61 5.0 S 6 9 3 5 1015.2 - 0.0
24/12:00pm 25.8 27.6 18.7 65 4.5 SE 7 13 4 7 1015.9 1015.7 0.0
24/11:30am 25.1 27.2 18.1 65 4.4 ESE 4 9 2 5 1016.7 - 0.0
24/11:00am 24.2 26.4 18.4 70 3.7 S 4 9 2 5 1017.1 1016.9 0.0
24/10:30am 22.5 25.0 18.1 76 2.8 S 2 4 1 2 1017.6 - 0.0
24/10:00am 21.7 23.9 17.5 77 2.6 S 2 4 1 2 1017.9 1017.7 0.0
24/09:30am 20.1 22.3 17.5 85 1.6 SE 2 6 1 3 1017.6 - 0.0
24/09:00am 18.4 20.3 16.6 89 1.1 SSE 2 4 1 2 1017.5 1017.3 0.8
24/08:30am 17.5 19.0 16.7 95 0.5 SE 4 7 2 4 1017.6 - 0.8
24/08:00am 16.4 18.0 15.9 97 0.3 NNW 2 4 1 2 1017.6 1017.4 0.8
24/07:30am 15.6 17.3 15.3 98 0.2 CALM 0 0 0 0 1017.4 - 0.8
24/07:00am 15.1 16.3 14.8 98 0.2 SSW 2 4 1 2 1017.0 1016.8 0.8
24/06:30am 14.7 15.7 14.4 98 0.2 N 2 4 1 2 1017.1 - 0.8
24/06:00am 14.7 15.7 14.4 98 0.2 NNE 2 4 1 2 1016.7 1016.5 0.8
24/05:30am 14.9 16.4 14.6 98 0.2 CALM 0 0 0 0 1016.0 - 0.8
24/05:00am 15.1 16.7 14.8 98 0.2 CALM 0 0 0 0 1015.8 1015.6 0.8
24/04:30am 15.4 17.0 14.9 97 0.3 CALM 0 0 0 0 1015.8 - 0.8
24/04:00am 15.4 17.0 14.9 97 0.3 CALM 0 0 0 0 1015.7 1015.5 0.8
24/03:30am 15.6 17.3 15.1 97 0.3 CALM 0 0 0 0 1015.7 - 0.8
24/03:00am 15.9 17.7 15.4 97 0.3 CALM 0 0 0 0 1016.0 1015.8 0.8
24/02:30am 15.8 17.5 15.3 97 0.3 CALM 0 0 0 0 1016.0 - 0.8
24/02:00am 16.0 17.8 15.5 97 0.3 CALM 0 0 0 0 1016.2 1016.0 0.8
24/01:30am 16.2 17.7 15.7 97 0.3 NNW 2 4 1 2 1016.4 - 0.8
24/01:00am 16.0 17.8 15.4 96 0.3 CALM 0 2 0 1 1016.8 1016.6 0.8
24/12:30am 16.2 18.1 15.7 97 0.3 CALM 0 0 0 0 1017.0 - 0.8
24/12:00am 16.5 18.5 15.9 96 0.4 N 0 0 0 0 1017.3 1017.1 0.8
 
Date/Time
EST
Temp
°C
App
Temp
°C
Dew
Point
Rel
Hum
%
Delta-T
°C
Wind Press
QNH
hPa
Press
MSL
hPa
Rain
since 9 am
mm
Dir
 
Spd
km/h
Gust
km/h
Spd
kts
Gust
kts
23/11:30pm 16.7 18.7 15.9 95 0.5 CALM 0 0 0 0 1017.7 - 0.8
23/11:00pm 17.0 18.8 16.4 96 0.4 N 2 4 1 2 1017.8 1017.6 0.8
23/10:30pm 17.5 19.7 16.4 93 0.7 CALM 0 0 0 0 1018.0 - 0.8
23/10:00pm 17.4 19.5 16.3 93 0.7 CALM 0 0 0 0 1018.2 1018.0 0.8
23/09:30pm 18.2 20.6 16.9 92 0.8 CALM 0 0 0 0 1018.4 - 0.8
23/09:00pm 18.2 20.5 16.7 91 0.9 CALM 0 0 0 0 1018.3 1018.1 0.8
23/08:30pm 18.7 20.9 16.5 87 1.3 CALM 0 0 0 0 1018.3 - 0.8
23/08:00pm 19.3 21.6 16.7 85 1.6 CALM 0 0 0 0 1018.2 1018.0 0.8
23/07:30pm 19.2 21.0 16.4 84 1.7 S 2 4 1 2 1017.8 - 0.8
23/07:00pm 20.2 22.1 16.8 81 2.1 SE 2 4 1 2 1017.7 1017.5 0.8
23/06:30pm 20.8 23.0 17.4 81 2.1 SE 2 4 1 2 1017.4 - 0.8
23/06:00pm 21.4 22.9 17.6 79 2.3 SE 6 9 3 5 1017.2 1017.0 0.8
23/05:30pm 22.0 24.1 18.2 79 2.4 ESE 4 7 2 4 1016.8 - 0.8
23/05:00pm 23.1 23.9 17.3 70 3.6 E 9 15 5 8 1016.4 1016.2 0.8
23/04:30pm 23.9 25.6 18.1 70 3.6 E 6 13 3 7 1016.2 - 0.8
23/04:00pm 24.1 25.1 17.8 68 3.9 E 9 17 5 9 1016.0 1015.8 0.8
23/03:30pm 23.5 25.3 18.4 73 3.2 SE 6 13 3 7 1016.1 - 0.8
23/03:00pm 23.6 25.6 18.7 74 3.1 ESE 6 9 3 5 1016.3 1016.1 0.8
23/02:30pm 23.0 25.0 18.7 77 2.7 E 6 9 3 5 1016.4 - 0.8
23/02:00pm 23.4 26.4 19.3 78 2.6 E 2 9 1 5 1016.5 1016.3 0.8
23/01:30pm 21.5 23.6 18.9 85 1.6 E 6 9 3 5 1016.8 - 0.8
23/01:00pm 24.4 26.1 18.1 68 4.0 ENE 6 11 3 6 1017.0 1016.8 0.0
23/12:30pm 24.2 25.7 17.7 67 4.1 ENE 6 9 3 5 1017.3 - 0.0
23/12:00pm 24.3 26.4 17.3 65 4.3 ESE 2 4 1 2 1017.6 1017.4 0.0
23/11:30am 24.3 26.4 18.0 68 4.0 SE 4 6 2 3 1018.3 - 0.0
23/11:00am 24.0 25.5 17.5 67 4.0 SSE 6 9 3 5 1018.7 1018.5 0.0
23/10:30am 23.4 25.6 18.3 73 3.2 SSE 4 9 2 5 1019.1 - 0.0
23/10:00am 21.6 23.3 17.2 76 2.7 S 4 6 2 3 1019.3 1019.1 0.0
23/09:30am 21.1 23.9 17.9 82 2.0 CALM 0 0 0 0 1019.5 - 0.0
23/09:00am 19.2 20.7 16.6 85 1.6 SSE 4 6 2 3 1019.5 1019.3 0.0
23/08:30am 17.7 19.2 16.6 93 0.7 S 4 6 2 3 1019.8 - 0.0
23/08:00am 16.9 18.9 15.9 94 0.6 CALM 0 2 0 1 1019.6 1019.4 0.0
23/07:30am 16.2 17.3 15.7 97 0.3 SSE 4 6 2 3 1019.2 - 0.0
23/07:00am 15.5 17.1 15.0 97 0.3 CALM 0 0 0 0 1019.3 1019.1 0.0
23/06:30am 15.2 16.7 14.7 97 0.3 CALM 0 0 0 0 1019.5 - 0.0
23/06:00am 15.3 16.9 14.8 97 0.3 CALM 0 0 0 0 1019.1 1018.9 0.0
23/05:30am 15.4 17.0 14.8 96 0.3 CALM 0 4 0 2 1018.8 - 0.0
23/05:00am 15.3 16.8 14.7 96 0.3 CALM 0 0 0 0 1018.8 1018.6 0.0
23/04:30am 15.5 17.1 15.0 97 0.3 CALM 0 0 0 0 1018.6 - 0.0
23/04:00am 15.5 17.1 15.0 97 0.3 CALM 0 0 0 0 1018.7 1018.5 0.0
23/03:30am 15.1 16.5 14.5 96 0.3 CALM 0 2 0 1 1018.5 - 0.0
23/03:00am 15.5 17.1 14.9 96 0.3 CALM 0 0 0 0 1018.4 1018.2 0.0
23/02:30am 15.5 17.0 14.7 95 0.5 CALM 0 0 0 0 1018.7 - 0.0
23/02:00am 15.7 17.4 15.1 96 0.3 CALM 0 0 0 0 1018.9 1018.7 0.0
23/01:30am 15.8 17.4 15.0 95 0.5 CALM 0 0 0 0 1019.0 - 0.0
23/01:00am 15.9 17.6 15.1 95 0.5 CALM 0 0 0 0 1019.1 1018.9 0.0
23/12:30am 16.0 17.6 14.9 93 0.6 CALM 0 0 0 0 1019.4 - 0.0
23/12:00am 16.4 18.2 15.4 94 0.6 CALM 0 0 0 0 1019.5 1019.3 0.0
 
Date/Time
EST
Temp
°C
App
Temp
°C
Dew
Point
Rel
Hum
%
Delta-T
°C
Wind Press
QNH
hPa
Press
MSL
hPa
Rain
since 9 am
mm
Dir
 
Spd
km/h
Gust
km/h
Spd
kts
Gust
kts
22/11:30pm 16.6 18.4 15.5 93 0.6 CALM 0 0 0 0 1019.7 - 0.0
22/11:00pm 16.9 18.1 15.8 93 0.6 N 4 7 2 4 1020.0 1019.8 0.0
22/10:30pm 17.2 19.1 15.7 91 0.9 CALM 0 0 0 0 1019.9 - 0.0
22/10:00pm 17.5 19.4 15.8 90 1.0 CALM 0 0 0 0 1019.9 1019.7 0.0
22/09:30pm 17.9 19.9 16.1 89 1.1 CALM 0 0 0 0 1019.9 - 0.0
22/09:00pm 18.0 20.1 16.3 90 1.0 CALM 0 0 0 0 1020.0 1019.8 0.0
22/08:30pm 18.2 20.3 16.2 88 1.2 CALM 0 0 0 0 1020.1 - 0.0
22/08:00pm 19.0 21.1 16.2 84 1.7 CALM 0 0 0 0 1020.1 1019.9 0.0
22/07:30pm 19.5 21.6 16.2 81 2.0 CALM 0 0 0 0 1019.9 - 0.0
22/07:00pm 20.7 22.9 16.5 77 2.5 CALM 0 0 0 0 1019.6 1019.4 0.0
22/06:30pm 21.5 23.5 16.0 71 3.3 CALM 0 4 0 2 1019.4 - 0.0
22/06:00pm 22.3 23.6 16.1 68 3.7 E 4 7 2 4 1019.1 1018.9 0.0
22/05:30pm 23.1 24.4 16.2 65 4.2 E 4 7 2 4 1018.8 - 0.0
22/05:00pm 24.2 24.8 15.7 59 5.1 E 7 13 4 7 1018.5 1018.3 0.0
22/04:30pm 24.7 24.7 15.1 55 5.8 E 9 17 5 9 1018.3 - 0.0
22/04:00pm 25.3 25.3 15.3 54 6.0 E 9 15 5 8 1018.1 1017.9 0.0
22/03:30pm 26.0 25.7 15.4 52 6.4 E 11 17 6 9 1018.1 - 0.0
22/03:00pm 25.6 25.4 15.6 54 6.1 E 11 17 6 9 1018.3 1018.1 0.0
22/02:30pm 26.1 26.3 14.6 49 6.9 E 7 15 4 8 1018.3 - 0.0
22/02:00pm 26.3 26.7 15.4 51 6.6 ESE 7 15 4 8 1018.2 1018.0 0.0
22/01:30pm 26.3 27.3 16.3 54 6.2 ESE 6 13 3 7 1018.6 - 0.0
22/01:00pm 26.0 26.6 15.4 52 6.4 E 6 11 3 6 1019.0 1018.8 0.0
22/12:30pm 25.9 26.9 14.4 49 6.9 E 2 6 1 3 1019.4 - 0.0
22/12:00pm 25.4 25.9 15.1 53 6.2 E 6 13 3 7 1019.9 1019.7 0.0
22/11:30am 25.1 25.8 15.7 56 5.7 ENE 6 9 3 5 1020.7 - 0.0
22/11:00am 25.3 26.7 16.4 57 5.5 ENE 4 7 2 4 1021.1 1020.9 0.0
22/10:30am 24.1 25.5 16.4 62 4.7 S 4 6 2 3 1021.4 - 0.0
22/10:00am 23.0 24.8 16.5 67 4.0 SE 2 6 1 3 1021.7 1021.5 0.0
22/09:30am 20.9 22.3 16.5 76 2.7 SE 4 7 2 4 1021.7 - 0.0
22/09:00am 19.4 21.1 16.2 82 1.9 SSE 2 4 1 2 1022.0 1021.8 0.0
22/08:30am 17.3 18.7 15.3 88 1.2 SSE 2 6 1 3 1022.0 - 0.0
22/08:00am 15.4 16.5 14.6 95 0.5 SSE 2 6 1 3 1022.1 1021.9 0.0
22/07:30am 13.6 14.6 13.3 98 0.2 CALM 0 0 0 0 1022.0 - 0.0
22/07:00am 12.7 13.5 12.4 98 0.2 CALM 0 0 0 0 1021.6 1021.4 0.0
22/06:30am 12.1 12.7 11.8 98 0.2 CALM 0 0 0 0 1021.5 - 0.0
22/06:00am 12.2 12.8 12.0 99 0.1 CALM 0 0 0 0 1021.1 1020.9 0.0
22/05:30am 12.3 12.9 12.0 98 0.2 CALM 0 0 0 0 1021.1 - 0.0
22/05:00am 12.3 12.9 11.8 97 0.3 CALM 0 0 0 0 1020.9 1020.7 0.0
22/04:30am 12.6 13.3 12.1 97 0.3 CALM 0 0 0 0 1020.7 - 0.0
22/04:00am 12.8 13.5 12.2 96 0.3 CALM 0 0 0 0 1020.4 1020.2 0.0
22/03:30am 13.1 13.9 12.5 96 0.3 CALM 0 0 0 0 1020.4 - 0.0
22/03:00am 13.1 13.8 12.3 95 0.4 CALM 0 0 0 0 1020.3 1020.1 0.0
22/02:30am 13.5 14.4 12.9 96 0.3 CALM 0 0 0 0 1020.4 - 0.0
22/02:00am 13.8 14.7 13.0 95 0.4 CALM 0 0 0 0 1020.5 1020.3 0.0
22/01:30am 14.0 15.0 13.2 95 0.4 CALM 0 0 0 0 1020.9 - 0.0
22/01:00am 14.5 15.7 13.9 96 0.3 CALM 0 0 0 0 1020.8 1020.6 0.0
22/12:30am 14.6 15.7 13.6 94 0.6 CALM 0 0 0 0 1020.9 - 0.0
22/12:00am 14.8 16.0 13.8 94 0.6 CALM 0 0 0 0 1021.1 1020.9 0.0
 
Date/Time
EST
Temp
°C
App
Temp
°C
Dew
Point
Rel
Hum
%
Delta-T
°C
Wind Press
QNH
hPa
Press
MSL
hPa
Rain
since 9 am
mm
Dir
 
Spd
km/h
Gust
km/h
Spd
kts
Gust
kts
21/11:30pm 15.3 16.6 14.2 93 0.6 CALM 0 0 0 0 1021.1 - 0.0
21/11:00pm 15.6 17.0 14.5 93 0.6 CALM 0 0 0 0 1021.3 1021.1 0.0
21/10:30pm 16.1 17.6 14.6 91 0.9 CALM 0 0 0 0 1021.5 - 0.0
21/10:00pm 16.5 18.0 14.7 89 1.0 CALM 0 0 0 0 1021.5 1021.3 0.0
21/09:30pm 16.6 18.2 14.8 89 1.0 CALM 0 0 0 0 1021.5 - 0.0
21/09:00pm 17.3 18.9 14.9 86 1.4 CALM 0 0 0 0 1021.3 1021.1 0.0
21/08:30pm 18.0 19.7 15.1 83 1.7 CALM 0 0 0 0 1021.2 - 0.0
21/08:00pm 19.3 21.1 15.4 78 2.3 CALM 0 0 0 0 1021.0 1020.8 0.0
21/07:30pm 19.7 21.4 15.1 75 2.7 CALM 0 0 0 0 1020.6 - 0.0
21/07:00pm 21.6 22.7 14.7 65 4.1 NE 2 6 1 3 1020.2 1020.0 0.0
21/06:30pm 22.4 23.6 14.8 62 4.5 NE 2 4 1 2 1019.7 - 0.0

Other Formats:

Comma delimited format used in spreadsheet applications
http://www.bom.gov.au/fwo/IDQ60801/IDQ60801.94566.axf

JavaScript Object Notation format (JSON) in row-major order
http://www.bom.gov.au/fwo/IDQ60801/IDQ60801.94566.json